Time;durP1;ratioP1;P1;durP2;ratioP2;P2;SDS_P1;SDS_P2;PMS_P1;PMS_P2;Temp;Humidity;BMP_temperature;BMP_pressure;BME280_temperature;BME280_humidity;BME280_pressure;Samples;Min_cycle;Max_cycle;Signal;HPM_P1;HPM_P2
2023/03/13 00:00:37;;;;;;;20.00;5.43;;;13.80;99.90;;;13.07;100.00;100414.22;4170579;28;20036;-75
2023/03/13 00:02:37;;;;;;;14.85;5.43;;;13.80;99.90;;;13.01;100.00;100413.13;4155443;28;20029;-74
2023/03/13 00:04:38;;;;;;;21.42;4.95;;;13.80;99.90;;;13.04;100.00;100399.53;4154188;28;20030;-74
2023/03/13 00:06:39;;;;;;;16.15;5.03;;;13.80;99.90;;;12.98;100.00;100405.53;4154171;28;20042;-74
2023/03/13 00:08:41;;;;;;;17.23;4.97;;;13.80;99.90;;;12.91;100.00;100396.66;4154850;28;20100;-74
2023/03/13 00:10:41;;;;;;;14.30;4.57;;;13.70;99.90;;;12.89;100.00;100392.56;4155056;28;20072;-74
2023/03/13 00:12:42;;;;;;;14.68;4.90;;;13.70;99.90;;;12.98;100.00;100392.31;4170358;28;20029;-74
2023/03/13 00:14:43;;;;;;;19.55;5.75;;;13.70;99.90;;;12.84;100.00;100385.16;4153845;28;20049;-74
2023/03/13 00:16:44;;;;;;;21.75;5.45;;;13.70;99.90;;;12.88;100.00;100385.59;4155295;28;20021;-74
2023/03/13 00:18:47;;;;;;;21.10;5.57;;;13.70;99.90;;;12.93;100.00;100381.41;4150234;28;20057;-74
2023/03/13 00:20:49;;;;;;;16.77;4.43;;;13.60;99.90;;;12.91;100.00;100377.31;4155107;28;20504;-74
2023/03/13 00:22:50;;;;;;;16.40;4.35;;;13.60;99.90;;;12.90;100.00;100373.84;4153859;28;20112;-74
2023/03/13 00:24:51;;;;;;;12.30;4.10;;;13.70;99.90;;;12.89;100.00;100377.50;4153875;28;20507;-74
2023/03/13 00:26:51;;;;;;;11.18;3.85;;;13.60;99.90;;;12.87;100.00;100349.56;4169756;28;20026;-74
2023/03/13 00:28:53;;;;;;;14.20;4.68;;;13.70;99.90;;;12.92;100.00;100379.78;4151722;28;20049;-74
2023/03/13 00:31:13;;;;;;;16.23;3.83;;;13.70;99.90;;;12.92;100.00;100369.19;4155271;28;20030;-74
2023/03/13 00:33:14;;;;;;;17.27;4.25;;;13.70;99.90;;;12.91;100.00;100367.53;4154970;28;20396;-74
2023/03/13 00:35:15;;;;;;;12.27;4.38;;;13.70;99.90;;;12.98;100.00;100376.41;4154860;28;20030;-74
2023/03/13 00:37:16;;;;;;;16.23;4.53;;;13.70;99.90;;;13.04;100.00;100361.63;4155152;28;20555;-74
2023/03/13 00:39:17;;;;;;;18.17;4.95;;;13.60;99.90;;;12.99;100.00;100383.34;4154992;28;20033;-74
2023/03/13 00:41:27;;;;;;;16.52;4.68;;;13.70;99.90;;;12.98;100.00;100365.00;4153046;28;20524;-74
2023/03/13 00:43:29;;;;;;;9.75;4.18;;;13.70;99.90;;;12.90;100.00;100343.91;4154950;28;20363;-74
2023/03/13 00:45:30;;;;;;;13.27;4.50;;;13.70;99.90;;;12.91;100.00;100351.66;4153754;28;20026;-74
2023/03/13 00:47:30;;;;;;;15.18;4.10;;;13.70;99.90;;;12.94;100.00;100361.88;4148075;28;20026;-74
2023/03/13 00:49:31;;;;;;;16.42;4.00;;;13.70;99.90;;;12.92;100.00;100363.91;4165091;28;20025;-74
2023/03/13 00:51:33;;;;;;;11.25;5.43;;;13.70;99.90;;;12.87;100.00;100354.84;4153473;28;20037;-74
2023/03/13 00:53:34;;;;;;;13.48;4.78;;;13.60;99.90;;;12.72;100.00;100342.41;4153644;28;20524;-74
2023/03/13 00:55:35;;;;;;;10.27;3.95;;;13.50;99.90;;;12.67;100.00;100343.94;4136916;28;20030;-74
2023/03/13 00:57:37;;;;;;;14.35;4.68;;;13.50;99.90;;;12.67;100.00;100341.28;4169577;28;20444;-74
2023/03/13 00:59:38;;;;;;;14.00;4.45;;;13.40;99.90;;;12.61;100.00;100349.94;4153222;28;20485;-73
2023/03/13 01:01:39;;;;;;;13.55;3.70;;;13.30;99.90;;;12.47;100.00;100342.78;4153807;28;20029;-74
2023/03/13 01:03:42;;;;;;;19.25;4.72;;;13.30;99.90;;;12.37;100.00;100340.38;4153066;28;20038;-74
2023/03/13 01:05:43;;;;;;;14.63;4.47;;;13.20;99.90;;;12.26;100.00;100332.88;4153570;28;20022;-74
2023/03/13 01:07:44;;;;;;;16.35;4.43;;;13.10;99.90;;;12.19;100.00;100339.84;4151558;28;20448;-74
2023/03/13 01:09:45;;;;;;;17.02;4.50;;;13.00;99.90;;;12.04;100.00;100331.84;4154450;28;20025;-74
2023/03/13 01:11:46;;;;;;;13.13;4.15;;;12.90;99.90;;;12.00;100.00;100333.22;4161985;28;20030;-74
2023/03/13 01:13:48;;;;;;;11.35;4.22;;;12.80;99.90;;;11.91;100.00;100342.22;4153285;28;20505;-74
2023/03/13 01:15:49;;;;;;;18.00;4.78;;;12.80;99.90;;;11.93;100.00;100334.09;4153097;28;20419;-74
2023/03/13 01:17:49;;;;;;;19.23;4.57;;;12.70;99.90;;;12.04;100.00;100350.38;4145074;28;20034;-73
2023/03/13 01:19:50;;;;;;;15.00;4.50;;;12.70;99.90;;;11.98;100.00;100337.84;4154455;28;20030;-74
2023/03/13 01:21:51;;;;;;;16.95;4.88;;;12.70;99.90;;;11.93;100.00;100356.06;4153100;28;20034;-73
2023/03/13 01:23:53;;;;;;;15.07;4.95;;;12.70;99.90;;;11.92;100.00;100351.75;4152873;28;20033;-74
2023/03/13 01:25:56;;;;;;;13.68;5.13;;;12.70;99.90;;;11.89;100.00;100352.09;4141795;28;20026;-74
2023/03/13 01:27:57;;;;;;;16.77;5.05;;;12.70;99.90;;;11.95;100.00;100348.78;4154097;28;20052;-74
2023/03/13 01:29:58;;;;;;;17.05;4.70;;;12.70;99.90;;;11.92;100.00;100327.16;4154302;28;20054;-74
2023/03/13 01:31:58;;;;;;;18.90;4.82;;;12.70;99.90;;;11.96;100.00;100342.50;4153913;28;20029;-74
2023/03/13 01:34:03;;;;;;;19.58;5.65;;;12.70;99.90;;;11.96;100.00;100334.56;4154206;28;20088;-74
2023/03/13 01:36:05;;;;;;;13.60;4.00;;;12.70;99.90;;;12.05;100.00;100336.16;4137087;28;20477;-74
2023/03/13 01:38:06;;;;;;;14.00;5.35;;;12.70;99.90;;;12.03;100.00;100324.94;4169018;28;20033;-73
2023/03/13 01:40:08;;;;;;;20.08;4.82;;;12.80;99.90;;;12.01;100.00;100316.34;4152453;28;20494;-73
2023/03/13 01:42:09;;;;;;;18.23;6.13;;;12.80;99.90;;;12.05;100.00;100319.47;4152701;28;20038;-74
2023/03/13 01:44:23;;;;;;;17.48;5.75;;;12.80;99.90;;;12.07;100.00;100305.06;4145559;28;20033;-73
2023/03/13 01:46:27;;;;;;;15.10;5.15;;;12.80;99.90;;;12.09;100.00;100304.91;4149007;28;20432;-73
2023/03/13 01:48:53;;;;;;;15.00;4.70;;;12.90;99.90;;;12.07;100.00;100313.00;4168896;28;20037;-74
2023/03/13 01:50:59;;;;;;;14.30;4.97;;;12.90;99.90;;;11.98;100.00;100303.47;4168951;28;20030;-73
2023/03/13 01:53:00;;;;;;;15.02;4.57;;;12.80;99.90;;;11.99;100.00;100301.66;4152637;28;20034;-74
2023/03/13 01:55:15;;;;;;;12.70;4.97;;;12.80;99.90;;;11.91;100.00;100305.19;4152175;28;20034;-74
2023/03/13 01:57:29;;;;;;;14.50;4.45;;;12.80;99.90;;;11.99;100.00;100297.22;4128444;28;20023;-74
2023/03/13 01:59:43;;;;;;;;;;;12.70;99.90;;;12.02;100.00;100306.59;4150095;28;20038;-73
2023/03/13 02:01:46;;;;;;;15.75;4.85;;;12.80;99.90;;;12.01;100.00;100302.31;4152623;28;19927;-73
2023/03/13 02:03:49;;;;;;;16.55;5.32;;;12.80;99.90;;;12.09;100.00;100295.16;4152686;28;20026;-74
2023/03/13 02:05:50;;;;;;;23.13;5.88;;;12.80;99.90;;;11.95;100.00;100279.22;4168832;28;20097;-73
2023/03/13 02:08:07;;;;;;;12.18;4.70;;;12.80;99.90;;;12.13;100.00;100298.25;4141729;28;20034;-73
2023/03/13 02:10:10;;;;;;;12.00;5.45;;;12.80;99.90;;;12.17;100.00;100295.09;4135998;28;20027;-74
2023/03/13 02:12:18;;;;;;;19.00;4.90;;;12.90;99.90;;;12.21;100.00;100296.38;4163279;28;20399;-73
2023/03/13 02:14:25;;;;;;;13.88;4.78;;;13.00;99.90;;;12.19;100.00;100282.50;4151691;28;20172;-74
2023/03/13 02:16:28;;;;;;;11.02;3.90;;;13.00;99.90;;;12.29;100.00;100299.97;4152402;28;20402;-73
2023/03/13 02:18:29;;;;;;;18.33;5.15;;;13.00;99.90;;;12.33;100.00;100293.31;4145243;28;20026;-73
2023/03/13 02:20:30;;;;;;;13.48;5.63;;;13.10;99.90;;;12.43;100.00;100299.16;4132154;28;20077;-74
2023/03/13 02:22:34;;;;;;;9.80;5.20;;;13.10;99.90;;;12.51;100.00;100288.53;4152898;28;20068;-74
2023/03/13 02:24:57;;;;;;;15.77;3.70;;;13.20;99.90;;;12.46;100.00;100304.09;4153566;28;20397;-74
2023/03/13 02:26:58;;;;;;;13.23;4.25;;;13.20;99.90;;;12.42;100.00;100319.53;4153296;28;20092;-73
2023/03/13 02:28:59;;;;;;;10.32;5.03;;;13.20;99.90;;;12.40;100.00;100312.75;4153086;28;20030;-73
2023/03/13 02:31:01;;;;;;;13.25;5.72;;;13.20;99.90;;;12.30;100.00;100315.66;4152190;28;20033;-74
2023/03/13 02:33:03;;;;;;;18.92;5.50;;;13.10;99.90;;;12.30;100.00;100314.84;4144037;28;20141;-73
2023/03/13 02:35:09;;;;;;;22.17;4.88;;;13.10;99.90;;;12.27;100.00;100309.91;4151425;28;20532;-74
2023/03/13 02:37:12;;;;;;;12.77;3.95;;;13.00;99.90;;;12.14;100.00;100305.19;4147456;28;20497;-74
2023/03/13 02:39:15;;;;;;;18.33;5.20;;;13.00;99.90;;;12.18;100.00;100317.88;4125888;28;20034;-73
2023/03/13 02:41:18;;;;;;;18.17;5.40;;;12.90;99.90;;;12.17;100.00;100310.97;4167904;28;20042;-74
2023/03/13 02:43:39;;;;;;;17.20;5.07;;;12.90;99.90;;;12.07;100.00;100313.00;4151835;28;20105;-74
2023/03/13 02:45:40;;;;;;;17.40;5.38;;;12.90;99.90;;;12.18;100.00;100312.59;4152107;28;20061;-73
2023/03/13 02:47:40;;;;;;;17.52;5.05;;;12.90;99.90;;;12.12;100.00;100304.56;4142452;28;20154;-74
2023/03/13 02:49:41;;;;;;;12.45;5.43;;;12.90;99.90;;;12.15;100.00;100312.97;4147965;28;20485;-74
2023/03/13 02:51:45;;;;;;;18.85;5.00;;;12.80;99.90;;;11.99;100.00;100302.50;4152992;28;20026;-74
2023/03/13 02:53:52;;;;;;;21.85;6.10;;;12.80;99.90;;;11.95;100.00;100303.84;4135494;28;20034;-74
2023/03/13 02:55:54;;;;;;;20.83;6.35;;;12.80;99.90;;;11.96;100.00;100302.03;4151537;28;20034;-74
2023/03/13 02:57:55;;;;;;;19.60;5.35;;;12.70;99.90;;;11.92;100.00;100301.53;4139499;28;20030;-73
2023/03/13 02:59:56;;;;;;;17.90;6.72;;;12.70;99.90;;;11.87;100.00;100295.13;4151882;28;20057;-74
2023/03/13 03:01:57;;;;;;;14.23;5.57;;;12.70;99.90;;;11.96;100.00;100294.09;4144901;28;20030;-74
2023/03/13 03:03:58;;;;;;;14.50;5.40;;;12.70;99.90;;;11.99;100.00;100318.34;4145663;28;20021;-73
2023/03/13 03:05:59;;;;;;;17.30;5.15;;;12.70;99.90;;;12.03;100.00;100287.13;4152616;28;20057;-73
2023/03/13 03:08:00;;;;;;;19.42;5.40;;;12.70;99.90;;;11.94;100.00;100299.56;4151462;28;20026;-73
2023/03/13 03:10:01;;;;;;;20.45;5.55;;;12.70;99.90;;;11.98;100.00;100292.91;4152437;28;20491;-73
2023/03/13 03:12:02;;;;;;;14.93;5.65;;;12.70;99.90;;;11.96;100.00;100287.00;4167883;28;20034;-73
2023/03/13 03:14:04;;;;;;;15.35;5.03;;;12.70;99.90;;;11.92;100.00;100290.13;4151578;28;20057;-73
2023/03/13 03:16:08;;;;;;;13.57;5.38;;;12.70;99.90;;;11.82;100.00;100279.81;4151513;28;20026;-73
2023/03/13 03:18:09;;;;;;;16.83;5.47;;;12.60;99.90;;;11.81;100.00;100282.63;4128161;28;20026;-73
2023/03/13 03:20:10;;;;;;;16.38;5.80;;;12.60;99.90;;;11.81;100.00;100282.63;4146377;28;20409;-73
2023/03/13 03:22:11;;;;;;;21.17;4.88;;;12.60;99.90;;;11.81;100.00;100279.97;4152323;28;20034;-73
2023/03/13 03:24:12;;;;;;;15.30;4.88;;;12.60;99.90;;;11.84;100.00;100272.53;4151360;28;20026;-73
2023/03/13 03:26:13;;;;;;;16.92;4.47;;;12.50;99.90;;;11.84;100.00;100277.00;4151643;28;20052;-74
2023/03/13 03:28:14;;;;;;;14.70;5.00;;;12.60;99.90;;;11.78;100.00;100277.69;4151247;28;20025;-74
2023/03/13 03:30:15;;;;;;;19.17;6.10;;;12.50;99.90;;;11.80;100.00;100275.72;4167608;28;20053;-73
2023/03/13 03:32:16;;;;;;;21.00;5.68;;;12.50;99.90;;;11.74;100.00;100286.97;4152211;28;20091;-73
2023/03/13 03:34:17;;;;;;;20.92;5.88;;;12.50;99.90;;;11.64;100.00;100256.28;4152409;28;20041;-73
2023/03/13 03:36:21;;;;;;;15.65;4.93;;;12.50;99.90;;;11.75;100.00;100276.22;4152617;28;20068;-74
2023/03/13 03:38:22;;;;;;;11.93;4.57;;;12.50;99.90;;;11.71;100.00;100269.63;4152219;28;20036;-74
2023/03/13 03:40:23;;;;;;;13.18;4.80;;;12.50;99.90;;;11.70;100.00;100275.94;4152128;28;20405;-73
2023/03/13 03:42:23;;;;;;;8.73;4.80;;;12.50;99.90;;;11.76;100.00;100263.84;4152482;28;20157;-73
2023/03/13 03:44:24;;;;;;;17.17;3.42;;;12.50;99.90;;;11.70;100.00;100272.47;4152309;28;20493;-73
2023/03/13 03:46:25;;;;;;;9.88;3.53;;;12.40;99.90;;;11.65;100.00;100262.38;4151087;28;20032;-74
2023/03/13 03:48:26;;;;;;;10.25;4.10;;;12.50;99.90;;;11.70;100.00;100272.47;4152005;28;20033;-74
2023/03/13 03:50:27;;;;;;;10.68;4.03;;;12.40;99.90;;;11.79;100.00;100264.31;4151178;28;20057;-74
2023/03/13 03:52:28;;;;;;;12.05;4.10;;;12.50;99.90;;;11.71;100.00;100282.84;4152472;28;20022;-73
2023/03/13 03:54:29;;;;;;;7.43;3.45;;;12.50;99.90;;;11.76;100.00;100277.88;4151182;28;20026;-73
2023/03/13 03:56:30;;;;;;;12.60;3.78;;;12.50;99.90;;;11.82;100.00;100277.19;4150597;28;20064;-74
2023/03/13 03:58:31;;;;;;;10.57;3.08;;;12.50;99.90;;;11.82;100.00;100263.13;4151039;28;20113;-73
2023/03/13 04:00:31;;;;;;;11.40;3.00;;;12.50;99.90;;;11.79;100.00;100274.88;4143443;28;20513;-73
2023/03/13 04:02:32;;;;;;;6.53;2.47;;;12.50;99.90;;;11.86;100.00;100278.44;4152104;28;20038;-73
2023/03/13 04:04:33;;;;;;;7.75;2.38;;;12.60;99.90;;;11.87;100.00;100282.75;4150879;28;20065;-73
2023/03/13 04:06:34;;;;;;;8.90;3.47;;;12.60;99.90;;;11.98;100.00;100276.22;4152223;28;20034;-73
2023/03/13 04:08:35;;;;;;;7.00;2.60;;;12.60;99.90;;;11.92;100.00;100261.06;4152173;28;20022;-73
2023/03/13 04:10:36;;;;;;;9.43;3.08;;;12.60;99.90;;;11.89;100.00;100275.47;4150659;28;20088;-73
2023/03/13 04:12:38;;;;;;;7.38;2.72;;;12.60;99.90;;;11.86;100.00;100281.09;4151984;28;20022;-74
2023/03/13 04:14:39;;;;;;;7.25;2.83;;;12.60;99.90;;;11.89;100.00;100296.59;4151904;28;20050;-73
2023/03/13 04:16:40;;;;;;;7.13;2.95;;;12.60;99.90;;;11.90;100.00;100271.84;4152129;28;20038;-73
2023/03/13 04:18:40;;;;;;;7.40;3.10;;;12.60;99.90;;;11.87;100.00;100284.56;4150923;28;20037;-73
2023/03/13 04:20:41;;;;;;;7.85;2.95;;;12.60;99.90;;;11.85;100.00;100276.81;4167119;28;20030;-73
2023/03/13 04:22:43;;;;;;;10.70;2.90;;;12.60;99.90;;;11.87;100.00;100269.53;4150844;28;20025;-73
2023/03/13 04:24:44;;;;;;;5.88;2.15;;;12.60;99.90;;;11.82;100.00;100277.19;4150117;28;20050;-74
2023/03/13 04:26:45;;;;;;;5.75;2.90;;;12.60;99.90;;;11.82;100.00;100279.00;4140077;28;20041;-73
2023/03/13 04:28:45;;;;;;;5.32;2.05;;;12.60;99.90;;;11.94;100.00;100277.59;4166958;28;20018;-73
2023/03/13 04:30:46;;;;;;;5.60;2.45;;;12.60;99.90;;;11.97;100.00;100299.22;4152087;28;20086;-73
2023/03/13 04:32:49;;;;;;;4.18;2.20;;;12.60;99.90;;;11.91;100.00;100292.00;4150583;28;20026;-73
2023/03/13 04:34:50;;;;;;;8.57;3.42;;;12.70;99.90;;;11.96;100.00;100302.03;4166926;28;20180;-73
2023/03/13 04:36:51;;;;;;;7.53;2.72;;;12.60;99.90;;;11.89;100.00;100293.13;4152332;28;20026;-73
2023/03/13 04:38:52;;;;;;;8.68;2.67;;;12.60;99.90;;;11.90;100.00;100292.16;4153645;28;20041;-73
2023/03/13 04:40:53;;;;;;;10.82;2.95;;;12.60;99.90;;;11.89;100.00;100285.19;4154719;28;20030;-73
2023/03/13 04:42:54;;;;;;;10.15;4.07;;;12.60;99.90;;;11.85;100.00;100283.94;4153726;28;20583;-73
2023/03/13 04:44:55;;;;;;;12.95;3.38;;;12.60;99.90;;;11.86;100.00;100281.09;4153585;28;20085;-73
2023/03/13 04:46:55;;;;;;;14.70;3.47;;;12.60;99.90;;;11.81;100.00;100296.66;4152194;28;20030;-73
2023/03/13 04:48:56;;;;;;;11.32;4.35;;;12.60;99.90;;;11.87;100.00;100293.31;4144592;28;20030;-73
2023/03/13 04:50:57;;;;;;;17.65;4.00;;;12.60;99.90;;;11.99;100.00;100291.09;4148639;28;20033;-73
2023/03/13 04:52:58;;;;;;;19.27;4.70;;;12.60;99.90;;;11.90;100.00;100274.47;4154638;28;20452;-73
2023/03/13 04:54:59;;;;;;;18.33;5.60;;;12.60;99.90;;;11.86;100.00;100275.81;4153408;28;20037;-73
2023/03/13 04:57:00;;;;;;;15.77;4.30;;;12.60;99.90;;;12.02;100.00;100293.38;4169919;28;20021;-73
2023/03/13 04:59:01;;;;;;;15.80;4.47;;;12.70;99.90;;;11.93;100.00;100271.47;4153494;28;20528;-73
2023/03/13 05:01:01;;;;;;;25.45;6.72;;;12.70;99.90;;;11.95;100.00;100261.53;4153481;28;20109;-73
2023/03/13 05:03:02;;;;;;;19.17;5.38;;;12.70;99.90;;;11.97;100.00;100267.50;4154505;28;20033;-73
2023/03/13 05:05:04;;;;;;;15.60;4.78;;;12.70;99.90;;;11.93;100.00;100260.06;4154721;28;20036;-73
2023/03/13 05:07:05;;;;;;;22.00;5.78;;;12.70;99.90;;;12.00;100.00;100261.03;4149845;28;20061;-73
2023/03/13 05:09:06;;;;;;;20.05;5.90;;;12.70;99.90;;;11.95;100.00;100252.78;4149826;28;20101;-73
2023/03/13 05:11:07;;;;;;;20.30;5.50;;;12.70;99.90;;;11.95;100.00;100243.03;4153545;28;20033;-73
2023/03/13 05:13:08;;;;;;;17.88;5.55;;;12.70;99.90;;;12.09;100.00;100259.97;4153102;28;20026;-73
2023/03/13 05:15:09;;;;;;;19.85;5.43;;;12.70;99.90;;;12.08;100.00;100248.56;4169681;28;20029;-73
2023/03/13 05:17:13;;;;;;;18.38;5.53;;;12.70;99.90;;;12.05;100.00;100245.44;4136856;28;20026;-73
2023/03/13 05:19:14;;;;;;;25.42;6.88;;;12.80;99.90;;;12.10;100.00;100238.63;4169355;28;20041;-73
2023/03/13 05:21:15;;;;;;;20.05;5.70;;;12.80;99.90;;;12.11;100.00;100232.34;4154700;28;20021;-73
2023/03/13 05:23:15;;;;;;;21.23;5.63;;;12.90;99.90;;;12.14;100.00;100218.78;4154280;28;20077;-73
2023/03/13 05:25:16;;;;;;;30.20;6.10;;;12.80;99.90;;;12.17;100.00;100223.72;4154019;28;20595;-73
2023/03/13 05:27:17;;;;;;;15.85;5.82;;;12.80;99.90;;;12.14;100.00;100210.84;4152852;28;20026;-73
2023/03/13 05:29:18;;;;;;;21.40;6.43;;;12.80;99.90;;;12.07;100.00;100207.25;4169989;28;20029;-73
2023/03/13 05:31:19;;;;;;;23.52;5.18;;;12.90;99.90;;;12.06;100.00;100207.44;4136588;28;20026;-73
2023/03/13 05:33:20;;;;;;;23.33;5.93;;;12.80;99.90;;;12.07;100.00;100209.91;4154454;28;20033;-73
2023/03/13 05:35:21;;;;;;;17.20;5.82;;;12.80;99.90;;;12.12;100.00;100185.59;4152778;28;20029;-73
2023/03/13 05:37:22;;;;;;;23.95;4.95;;;12.90;99.90;;;12.17;100.00;100184.03;4152779;28;20029;-73
2023/03/13 05:39:23;;;;;;;22.48;5.88;;;12.90;99.90;;;12.10;100.00;100184.91;4161379;28;20036;-73
2023/03/13 05:41:24;;;;;;;21.45;4.82;;;12.90;99.90;;;12.13;100.00;100176.63;4152586;28;20025;-73
2023/03/13 05:43:25;;;;;;;23.05;4.93;;;12.90;99.90;;;12.10;100.00;100188.41;4153947;28;20031;-73
2023/03/13 05:45:25;;;;;;;20.33;5.10;;;12.90;99.90;;;12.13;100.00;100182.75;4152890;28;20089;-74
2023/03/13 05:47:26;;;;;;;23.80;5.00;;;12.90;99.90;;;12.12;100.00;100190.88;4169213;28;20026;-73
2023/03/13 05:49:27;;;;;;;19.60;4.75;;;12.90;99.90;;;12.16;100.00;100186.84;4152214;28;20486;-73
2023/03/13 05:51:28;;;;;;;24.13;6.25;;;12.90;99.90;;;12.15;100.00;100175.47;4169003;28;20060;-73
2023/03/13 05:53:29;;;;;;;22.50;5.50;;;12.90;99.90;;;12.19;100.00;100173.28;4152763;28;20433;-73
2023/03/13 05:55:30;;;;;;;20.05;5.07;;;12.90;99.90;;;12.27;100.00;100175.84;4168823;28;20034;-73
2023/03/13 05:57:31;;;;;;;20.65;5.20;;;12.90;99.90;;;12.15;100.00;100164.06;4147350;28;20421;-73
2023/03/13 05:59:31;;;;;;;21.67;6.22;;;12.90;99.90;;;12.20;100.00;100156.41;4150978;28;20025;-73
2023/03/13 06:01:32;;;;;;;23.95;5.55;;;12.90;99.90;;;12.12;100.00;100159.97;4152429;28;20033;-73
2023/03/13 06:03:33;;;;;;;23.73;5.18;;;12.90;99.90;;;12.10;100.00;100146.09;4169029;28;20026;-73
2023/03/13 06:05:34;;;;;;;21.95;5.35;;;12.90;99.90;;;12.26;100.00;100155.69;4136167;28;20429;-73
2023/03/13 06:07:35;;;;;;;19.13;4.78;;;13.00;99.90;;;12.14;100.00;100144.75;4153454;28;20044;-73
2023/03/13 06:09:36;;;;;;;19.27;6.22;;;12.90;99.90;;;12.13;100.00;100156.31;4152189;28;20500;-73
2023/03/13 06:11:37;;;;;;;22.17;5.63;;;12.90;99.90;;;12.14;100.00;100147.38;4153717;28;20030;-73
2023/03/13 06:13:38;;;;;;;25.20;6.60;;;12.90;99.90;;;12.17;100.00;100139.09;4152313;28;20046;-73
2023/03/13 06:15:39;;;;;;;24.02;5.05;;;12.90;99.90;;;12.14;100.00;100146.56;4153168;28;20029;-73
2023/03/13 06:17:39;;;;;;;23.45;5.88;;;12.90;99.90;;;12.15;100.00;100145.56;4152395;28;20186;-73
2023/03/13 06:19:40;;;;;;;24.83;5.43;;;12.90;99.90;;;12.17;100.00;100141.75;4168701;28;20033;-73
2023/03/13 06:21:41;;;;;;;28.38;7.35;;;12.90;99.90;;;12.18;100.00;100134.63;4152156;28;20022;-73
2023/03/13 06:23:42;;;;;;;21.67;6.75;;;12.90;99.90;;;12.16;100.00;100136.63;4153365;28;20072;-73
2023/03/13 06:25:47;;;;;;;27.05;6.00;;;12.90;99.90;;;12.12;100.00;100122.97;4152855;28;20401;-73
2023/03/13 06:27:48;;;;;;;21.98;6.50;;;12.90;99.90;;;12.10;100.00;100117.00;4152029;28;20053;-74
2023/03/13 06:29:48;;;;;;;23.52;6.32;;;12.90;99.90;;;12.14;100.00;100113.00;4151563;28;20398;-73
2023/03/13 06:31:50;;;;;;;29.35;7.72;;;12.90;99.90;;;12.12;100.00;100095.69;4151756;28;20030;-74
2023/03/13 06:33:54;;;;;;;27.13;6.50;;;12.90;99.90;;;12.07;100.00;100104.16;4168132;28;20032;-74
2023/03/13 06:35:56;;;;;;;28.17;5.53;;;12.90;99.90;;;12.12;100.00;100112.38;4151639;28;20021;-73
2023/03/13 06:37:57;;;;;;;23.48;6.13;;;12.90;99.90;;;12.13;100.00;100108.72;4151763;28;20045;-73
2023/03/13 06:39:58;;;;;;;22.63;5.65;;;12.80;99.90;;;12.07;100.00;100098.03;4152808;28;20398;-74
2023/03/13 06:41:58;;;;;;;24.40;6.15;;;12.80;99.90;;;12.05;100.00;100092.94;4152225;28;20085;-73
2023/03/13 06:43:59;;;;;;;24.42;5.32;;;12.90;99.90;;;12.03;100.00;100102.91;4168285;28;20018;-73
2023/03/13 06:46:04;;;;;;;31.25;6.63;;;12.90;99.90;;;12.05;100.00;100089.47;4151673;28;20034;-74
2023/03/13 06:48:05;;;;;;;30.92;6.10;;;12.80;99.90;;;12.07;100.00;100083.00;4141553;28;20126;-73
2023/03/13 06:50:07;;;;;;;23.13;7.40;;;12.80;99.90;;;12.06;100.00;100084.03;4152848;28;20054;-73
2023/03/13 06:52:08;;;;;;;26.70;6.05;;;12.80;99.90;;;12.12;100.00;100088.59;4135705;28;20027;-73
2023/03/13 06:54:08;;;;;;;20.00;5.63;;;12.80;99.90;;;12.10;100.00;100087.94;4151629;28;20022;-73
2023/03/13 06:56:10;;;;;;;33.58;7.55;;;12.90;99.90;;;12.09;100.00;100082.84;4149193;28;20478;-73
2023/03/13 06:58:11;;;;;;;26.98;6.07;;;12.80;99.90;;;12.07;100.00;100087.47;4151637;28;20034;-73
2023/03/13 07:00:12;;;;;;;29.23;5.95;;;12.90;99.90;;;12.06;100.00;100080.56;4152986;28;20099;-73
2023/03/13 07:02:15;;;;;;;25.60;6.10;;;12.90;99.90;;;12.09;100.00;100072.25;4151606;28;20022;-73
2023/03/13 07:04:16;;;;;;;22.75;5.47;;;12.80;99.90;;;12.09;100.00;100070.44;4151940;28;20497;-73
2023/03/13 07:06:17;;;;;;;34.90;6.75;;;12.90;99.90;;;12.08;100.00;100068.78;4136464;28;20034;-73
2023/03/13 07:08:18;;;;;;;29.98;6.35;;;12.90;99.90;;;12.08;100.00;100078.53;4151633;28;20052;-73
2023/03/13 07:10:19;;;;;;;24.17;6.60;;;12.90;99.90;;;12.08;100.00;100076.72;4151492;28;20022;-73
2023/03/13 07:12:20;;;;;;;33.85;7.32;;;12.90;99.90;;;12.13;100.00;100077.00;4147311;28;20576;-73
2023/03/13 07:14:21;;;;;;;21.98;6.32;;;12.90;99.90;;;12.16;100.00;100070.50;4152442;28;20046;-73
2023/03/13 07:16:21;;;;;;;30.00;7.28;;;12.90;99.90;;;12.14;100.00;100073.34;4151359;28;20030;-73
2023/03/13 07:18:22;;;;;;;25.95;6.22;;;13.00;99.90;;;12.14;100.00;100068.06;4143706;28;20108;-73
2023/03/13 07:20:23;;;;;;;28.35;6.00;;;12.90;99.90;;;12.16;100.00;100067.88;4146729;28;20040;-73
2023/03/13 07:22:24;;;;;;;27.02;6.18;;;12.90;99.90;;;12.10;100.00;100035.06;4151013;28;20026;-73
2023/03/13 07:24:25;;;;;;;32.17;6.75;;;12.90;99.90;;;12.11;100.00;100044.63;4151787;28;20025;-73
2023/03/13 07:26:26;;;;;;;32.28;6.13;;;12.90;99.90;;;12.03;100.00;100047.38;4167729;28;20021;-73
2023/03/13 07:28:29;;;;;;;20.60;7.50;;;12.90;99.90;;;12.02;100.00;100040.44;4151354;28;20064;-73
2023/03/13 07:30:30;;;;;;;35.30;6.43;;;12.80;99.90;;;12.01;100.00;100044.09;4151281;28;20025;-73
2023/03/13 07:32:32;;;;;;;35.70;6.20;;;12.80;99.90;;;12.06;100.00;100044.38;4151829;28;20039;-73
2023/03/13 07:34:32;;;;;;;30.30;7.18;;;12.80;99.90;;;12.14;100.00;100041.63;4152501;28;20028;-74
2023/03/13 07:36:34;;;;;;;31.80;8.48;;;12.90;99.90;;;12.16;100.00;100041.44;4152435;28;20026;-73
2023/03/13 07:38:35;;;;;;;35.08;6.82;;;12.90;99.90;;;12.24;100.00;100036.06;4151055;28;20037;-73
2023/03/13 07:40:36;;;;;;;26.65;5.75;;;13.00;99.90;;;12.41;100.00;100036.69;4151837;28;20026;-74
2023/03/13 07:42:41;;;;;;;25.60;5.85;;;13.10;99.90;;;12.55;100.00;100025.25;4152286;28;20030;-74
2023/03/13 07:44:42;;;;;;;26.55;6.13;;;13.20;99.90;;;12.52;100.00;100026.44;4152338;28;20033;-73
2023/03/13 07:46:43;;;;;;;28.25;6.05;;;13.30;99.90;;;12.59;100.00;100029.97;4148439;28;20426;-74
2023/03/13 07:48:44;;;;;;;24.00;6.80;;;13.40;99.90;;;12.69;100.00;100021.75;4151253;28;20042;-74
2023/03/13 07:50:45;;;;;;;30.15;6.30;;;13.50;99.90;;;12.88;100.00;100015.84;4152373;28;20386;-74
2023/03/13 07:52:46;;;;;;;30.73;7.72;;;13.60;99.90;;;12.88;100.00;100013.19;4152270;28;20030;-73
2023/03/13 07:54:47;;;;;;;32.45;7.03;;;13.70;99.90;;;12.87;100.00;100008.91;4150678;28;20026;-73
2023/03/13 07:56:49;;;;;;;21.10;5.50;;;13.70;99.90;;;12.87;100.00;100006.28;4167558;28;20029;-74
2023/03/13 07:58:50;;;;;;;29.45;6.10;;;13.70;99.90;;;12.96;100.00;100009.59;4134767;28;20109;-74
2023/03/13 08:00:52;;;;;;;30.35;5.55;;;13.70;99.90;;;12.92;100.00;100003.03;4152510;28;20030;-74
2023/03/13 08:02:53;;;;;;;31.02;7.63;;;13.70;99.90;;;13.07;100.00;100012.56;4151716;28;20034;-74
2023/03/13 08:04:54;;;;;;;26.83;6.70;;;13.80;99.90;;;13.11;100.00;100003.25;4152268;28;20026;-74
2023/03/13 08:06:55;;;;;;;28.90;7.75;;;13.90;99.90;;;13.10;100.00;100000.81;4150985;28;20478;-74
2023/03/13 08:08:57;;;;;;;26.02;6.65;;;13.90;99.90;;;12.96;100.00;99988.44;4124264;28;20027;-74
2023/03/13 08:11:04;;;;;;;29.63;6.95;;;13.90;99.90;;;13.07;100.00;99983.44;4148527;28;20026;-75
2023/03/13 08:13:05;;;;;;;35.70;5.97;;;13.90;99.90;;;13.18;100.00;99985.59;4170197;28;20029;-74
2023/03/13 08:15:07;;;;;;;25.73;6.95;;;14.00;99.90;;;13.26;100.00;99984.66;4170653;28;20029;-74
2023/03/13 08:17:07;;;;;;;26.33;5.00;;;14.10;99.90;;;13.32;100.00;99979.38;4155309;28;20489;-75